Etusivu
METAR-TAF:

METAR-TAF

Lentoasemat :

Hemavan, Ruotsi

Leveyspiiri: 65-48-22N, Pituuspiiri: 015-04-58E, korkeus merenpinnasta: 458 m

Tämänhetkinen sää

Tämä raportti tehtiin 11 minuuttia sitten, kello 17.20 UTC
Tuuli 6 kn pohjoisesta, vaihdellen luoteen ja koillisen välillä
Lämpötila 11°C
Kosteus 58%
Ilmanpaine 1019 hPa
Näkyvyys 10 km tai enemmän
heikkoa tihkusadetta

METAR: ESUT 201720Z AUTO 36006KT 320V050 9999 -DZ BKN053/// OVC072/// 11/03 Q1019

Aika: 19:31 (17:31 UTC)


TAF: puuttuu

Säähavainnot ja -ennusteet yli 4000 lentoasemalta (METAR- ja TAF-raportit).

Käytössä olevat sääasemat on merkitty karttaan keltaisilla ja punaisilla pisteillä.

Aseta hiiri pisteen päälle nähdäksesi sääaseman nimen.

Klikkaa sitten nähdäksesi säähavainnot ja -ennusteet.

Kartan vaihtaminen: klikkaa mustalla rastilla varustettuja vihreitä pisteitä, niin voit zoomata sisään; viivalla varustettua vihreää pistettä, niin voit zoomata ulos tai vihreitä nuolia, niin pääset viereisille kartoille.


METAR-TAF: